METAR Data
IDs: Format: Raw Decoded Include TAF

Data at: 1731 UTC 03 Jul 2020

METAR for:KFGX (Flemingsburg Arpt, KY, US)
Text:KFGX 031715Z AUTO 35003KT 10SM SCT075 30/17 A3005 RMK AO2 T02970172
Temperature: 29.7°C ( 85°F)
Dewpoint: 17.2°C ( 63°F) [RH = 47%]
Pressure (altimeter):30.05 inches Hg (1017.7 mb)
Winds:from the N (350 degrees) at 3 MPH (3 knots; 1.5 m/s)
Visibility:10 or more sm (16+ km)
Ceiling:at least 12,000 feet AGL
Clouds: scattered clouds at 7500 feet AGL
QC Flag:automated observation with no human augmentation